• Join FlightAware (Why Join?)
  • Login
  • US Flag 
04:37AM EDT


 

Airport Tracker/Info


-or-


 

Live Flight TrackerFlight Track Log ✈ EJA131 ✈ 21-Apr-2013 ✈ KCMH - KATL

Flight Track Log - Related Links

Times and Time Zones

All times are in EDT time to prevent confusion due to time zone crossing. See the EJA131 flight status page for this flight to view local times or setup timezone preferences in your user account.

Time Position Orientation Groundspeed Altitude Reporting Facility
EDT Latitude Longitude Course Direction KTS MPH feet Rate Location/Type
09:31AM 40.0022 -82.8831 97° East 118 136 1,400  Level Indianapolis Center
09:31AM 39.9986 -82.8444 97° East 189 217 2,900 2,820 Climbing Indianapolis Center
09:31AM 39.9978 -82.8269 94° East 203 234 3,700 3,480 Climbing Indianapolis Center
09:32AM 39.9511 -82.7678 136° Southeast 271 312 7,500 3,360 Climbing Indianapolis Center
09:33AM 39.8703 -82.7506 171° South 296 341 10,700 3,120 Climbing Indianapolis Center
09:34AM 39.7853 -82.7522 181° South 303 349 14,000 3,060 Climbing Indianapolis Center
09:35AM 39.7006 -82.7528 180° South 300 345 17,000 2,100 Climbing Indianapolis Center
09:36AM 39.6083 -82.7536 180° South 324 373 18,400 1,680 Climbing Indianapolis Center
09:38AM 39.5111 -82.7539 180° South 343 395 20,500 2,040 Climbing Indianapolis Center
09:39AM 39.4111 -82.7539 180° South 354 407 22,600 2,160 Climbing Indianapolis Center
09:40AM 39.2933 -82.7550 180° South 358 412 25,000 2,040 Climbing Indianapolis Center
09:41AM 39.1928 -82.7561 180° South 358 412 26,900 1,560 Climbing Indianapolis Center
09:42AM 39.1019 -82.7550 179° South 356 410 28,300 1,380 Climbing Indianapolis Center
09:43AM 38.9989 -82.7564 181° South 367 422 29,800 1,380 Climbing Indianapolis Center
09:44AM 38.8956 -82.7561 180° South 370 426 31,200 1,320 Climbing Indianapolis Center
09:45AM 38.7731 -82.7583 181° South 369 425 32,600 1,140 Climbing Indianapolis Center
09:46AM 38.6686 -82.7592 180° South 374 430 33,600 660 Climbing Indianapolis Center
09:47AM 38.5581 -82.7594 180° South 379 436 34,000 180 Climbing Indianapolis Center
09:48AM 38.4450 -82.7597 180° South 402 463 34,000  Level Indianapolis Center
09:49AM 38.3317 -82.7611 181° South 406 467 34,000  Level Indianapolis Center
09:50AM 38.2167 -82.7611 180° South 410 472 34,000  Level Indianapolis Center
09:51AM 38.1050 -82.7617 180° South 402 463 34,000  Level Indianapolis Center
09:52AM 37.9956 -82.7639 181° South 394 453 34,000  Level Indianapolis Center
09:53AM 37.8656 -82.7650 180° South 398 458 34,000  Level Indianapolis Center
09:54AM 37.7519 -82.7661 180° South 405 466 34,000  Level Indianapolis Center
09:55AM 37.6383 -82.7681 181° South 407 468 34,000  Level Indianapolis Center
09:56AM 37.5294 -82.7872 188° South 396 456 34,000  Level Indianapolis Center
09:57AM 37.4211 -82.8025 186° South 393 452 34,000  Level Indianapolis Center
09:58AM 37.3122 -82.8200 187° South 394 453 34,000  Level Indianapolis Center
09:59AM 37.2039 -82.8358 187° South 394 453 34,000  Level Indianapolis Center
10:00AM 37.0789 -82.8544 187° South 387 445 34,000  Level Indianapolis Center
10:00AM 37.0619 -82.8578 189° South 394 453 34,000  Level Atlanta Center
10:01AM 36.9411 -82.8778 188° South 394 453 34,000  Level Atlanta Center
10:02AM 36.8681 -82.8858 185° South 398 458 34,000  Level Indianapolis Center
10:03AM 36.7425 -82.9067 188° South 388 447 34,000  Level Indianapolis Center
10:04AM 36.6350 -82.9239 187° South 390 449 34,000  Level Indianapolis Center
10:05AM 36.5267 -82.9403 187° South 391 450 34,000  Level Indianapolis Center
10:06AM 36.4186 -82.9578 187° South 390 449 34,000  Level Indianapolis Center
10:07AM 36.2914 -82.9775 187° South 391 450 34,000  Level Atlanta Center
10:08AM 36.1831 -82.9942 187° South 391 450 34,000  Level Atlanta Center
10:09AM 36.0747 -83.0086 186° South 391 450 34,000  Level Atlanta Center
10:10AM 35.9686 -83.0253 187° South 386 444 34,000  Level Atlanta Center
10:11AM 35.8581 -83.0447 188° South 391 450 34,000  Level Atlanta Center
10:12AM 35.7622 -83.0586 187° South 391 450 34,000  Level Atlanta Center
10:13AM 35.6583 -83.0828 191° South 386 444 34,000  Level Atlanta Center
10:14AM 35.5500 -83.1069 190° South 392 451 34,000  Level Atlanta Center
10:15AM 35.4436 -83.1311 190° South 392 451 34,000 -540 Level Atlanta Center
10:16AM 35.3417 -83.1706 198° South 387 445 33,000 -1,260 Descending Atlanta Center
10:17AM 35.2503 -83.2222 205° Southwest 380 437 31,500 -1,500 Descending Atlanta Center
10:18AM 35.1547 -83.2742 204° Southwest 375 432 30,000 -1,560 Descending Atlanta Center
10:19AM 35.0569 -83.3283 204° Southwest 381 438 28,400 1,980 Descending Atlanta Center
10:20AM 34.9444 -83.3875 203° Southwest 387 445 34,000 -1,620 Climbing Atlanta Center
10:21AM 34.8467 -83.4414 204° Southwest 393 452 25,200 -5,100 Descending Atlanta Center
10:22AM 34.7489 -83.4953 204° Southwest 393 452 23,800 -1,440 Descending Atlanta Center
10:23AM 34.6531 -83.5439 203° Southwest 393 452 22,400 -1,440 Descending Atlanta Center
10:24AM 34.5594 -83.5947 204° Southwest 375 432 21,000 -1,440 Descending Atlanta Center
10:25AM 34.4636 -83.6458 204° Southwest 375 432 19,600 -1,440 Descending Atlanta Center
10:26AM 34.3719 -83.6967 205° Southwest 380 437 18,200 -1,260 Descending Atlanta Center
10:27AM 34.2906 -83.7372 202° Southwest 370 426 17,100 -1,200 Descending Atlanta Center
10:28AM 34.1989 -83.7850 203° Southwest 360 414 15,800 -1,380 Descending Atlanta Center
10:29AM 34.1050 -83.8381 205° Southwest 360 414 14,400 -1,260 Descending Atlanta Center
10:30AM 34.0281 -83.9083 217° Southwest 360 414 13,300 -1,200 Descending Atlanta Center
10:31AM 33.9528 -83.9886 222° Southwest 360 414 12,000 -660 Descending Atlanta Center
10:32AM 33.8714 -84.0764 222° Southwest 360 414 12,000  Level Atlanta Center
10:33AM 33.7900 -84.1414 214° Southwest 360 414 12,000  Level Atlanta Center
10:34AM 33.7667 -84.1500 197° South 338 389 12,000  Level Atlanta TRACON
10:35AM 33.7333 -84.2333 244° Southwest 293 337 12,000 -420 Level Atlanta TRACON
10:36AM 33.7333 -84.3167 270° West 289 333 11,300 -1,440 Descending Atlanta TRACON
10:37AM 33.7333 -84.4167 270° West 276 318 9,200 -2,760 Descending Atlanta TRACON
10:38AM 33.7333 -84.5000 270° West 266 306 5,800 -2,640 Descending Atlanta TRACON
10:39AM 33.7333 -84.6000 270° West 251 289 4,000 -900 Descending Atlanta TRACON
10:40AM 33.6833 -84.6333 209° Southwest 222 255 4,000 -540 Level Atlanta TRACON
10:41AM 33.6500 -84.6000 140° Southeast 166 191 3,000 -540 Descending Atlanta TRACON
10:42AM 33.6500 -84.5500 90° East 168 193 2,900 -540 Descending Atlanta TRACON
10:43AM 33.6500 -84.4833 90° East 155 178 2,000 -840 Descending Atlanta TRACON
10:44AM 33.6500 -84.4500 90° East 125 144 1,300 -720 Descending Atlanta TRACON
10:46AM 33.6367 -84.4279 64° Northeast  Level Estimated